SAS767 EKCH-LKPR
Flight info
| Callsign | SAS767 |
|---|---|
| Flight time | 1h 2m |
| Altitude | 37000 |
| Route | SALLO M44 KOGIM DCT LUROS M725 HDO DCT GOLOP |
| Aircraft | A320/M-SDE3FGHIRWY/LB1 |
Departure
| Time | 2026-04-22 18:03 |
|---|---|
| Airport | Copenhagen Kastrup Airport (EKCH) |
Arrival
| Time | 2026-04-22 19:05 |
|---|---|
| Airport | Václav Havel Airport Prague (LKPR) |
| Time | Latitude | Longitude | Altitude | Speed | Heading |
|---|---|---|---|---|---|
| 2026-04-22 17:24 | 55.62557 | 12.64900 | 24 ft | 0 kts | 89° |
| 2026-04-22 17:48 | 55.62557 | 12.64885 | 24 ft | 4 kts | 89° |
| 2026-04-22 17:48 | 55.62556 | 12.64837 | 24 ft | 4 kts | 89° |
| 2026-04-22 17:48 | 55.62559 | 12.64793 | 25 ft | 4 kts | 122° |
| 2026-04-22 17:49 | 55.62576 | 12.64770 | 25 ft | 2 kts | 179° |
| 2026-04-22 17:49 | 55.62588 | 12.64769 | 25 ft | 1 kts | 179° |
| 2026-04-22 17:54 | 55.62583 | 12.64769 | 24 ft | 2 kts | 179° |
| 2026-04-22 17:55 | 55.62567 | 12.64770 | 24 ft | 4 kts | 179° |
| 2026-04-22 17:55 | 55.62515 | 12.64771 | 24 ft | 7 kts | 179° |
| 2026-04-22 17:55 | 55.62459 | 12.64776 | 24 ft | 9 kts | 176° |
| 2026-04-22 17:55 | 55.62388 | 12.64781 | 24 ft | 11 kts | 178° |
| 2026-04-22 17:56 | 55.62317 | 12.64785 | 24 ft | 8 kts | 178° |
| 2026-04-22 17:56 | 55.62255 | 12.64788 | 24 ft | 8 kts | 180° |
| 2026-04-22 17:56 | 55.62197 | 12.64754 | 24 ft | 10 kts | 210° |
| 2026-04-22 17:56 | 55.62133 | 12.64684 | 24 ft | 12 kts | 214° |
| 2026-04-22 17:57 | 55.62064 | 12.64600 | 25 ft | 13 kts | 214° |
| 2026-04-22 17:57 | 55.61981 | 12.64515 | 24 ft | 15 kts | 198° |
| 2026-04-22 17:57 | 55.61872 | 12.64516 | 25 ft | 17 kts | 169° |
| 2026-04-22 17:57 | 55.61771 | 12.64552 | 25 ft | 14 kts | 169° |
| 2026-04-22 17:58 | 55.61676 | 12.64549 | 24 ft | 15 kts | 199° |
| 2026-04-22 17:58 | 55.61579 | 12.64452 | 26 ft | 17 kts | 213° |
| 2026-04-22 17:58 | 55.61470 | 12.64327 | 25 ft | 20 kts | 212° |
| 2026-04-22 17:58 | 55.61359 | 12.64197 | 25 ft | 20 kts | 213° |
| 2026-04-22 17:59 | 55.61235 | 12.64055 | 26 ft | 22 kts | 213° |
| 2026-04-22 17:59 | 55.61097 | 12.63897 | 24 ft | 25 kts | 212° |
| 2026-04-22 17:59 | 55.60946 | 12.63725 | 24 ft | 27 kts | 213° |
| 2026-04-22 17:59 | 55.60787 | 12.63543 | 24 ft | 28 kts | 213° |
| 2026-04-22 18:00 | 55.60682 | 12.63418 | 25 ft | 23 kts | 214° |
| 2026-04-22 18:00 | 55.60538 | 12.63208 | 25 ft | 14 kts | 221° |
| 2026-04-22 18:00 | 55.60482 | 12.63130 | 24 ft | 10 kts | 210° |
| 2026-04-22 18:00 | 55.60426 | 12.63129 | 24 ft | 8 kts | 157° |
| 2026-04-22 18:01 | 55.60402 | 12.63164 | 24 ft | 2 kts | 130° |
| 2026-04-22 18:01 | 55.60386 | 12.63196 | 25 ft | 5 kts | 130° |
| 2026-04-22 18:01 | 55.60351 | 12.63272 | 25 ft | 10 kts | 123° |
| 2026-04-22 18:01 | 55.60354 | 12.63376 | 27 ft | 9 kts | 53° |
| 2026-04-22 18:02 | 55.60418 | 12.63469 | 24 ft | 14 kts | 41° |
| 2026-04-22 18:02 | 55.60516 | 12.63619 | 26 ft | 35 kts | 40° |
| 2026-04-22 18:02 | 55.60887 | 12.64190 | 25 ft | 103 kts | 40° |
| 2026-04-22 18:02 | 55.61566 | 12.65234 | 24 ft | 153 kts | 42° |
| 2026-04-22 18:03 | 55.62391 | 12.66564 | 497 ft | 155 kts | 35° |
| 2026-04-22 18:03 | 55.63191 | 12.67809 | 1185 ft | 153 kts | 34° |
| 2026-04-22 18:03 | 55.64025 | 12.69085 | 1563 ft | 168 kts | 32° |
| 2026-04-22 18:03 | 55.64971 | 12.70520 | 1813 ft | 191 kts | 33° |
| 2026-04-22 18:04 | 55.66057 | 12.72133 | 2135 ft | 216 kts | 33° |
| 2026-04-22 18:04 | 55.67278 | 12.73929 | 2567 ft | 240 kts | 34° |
| 2026-04-22 18:04 | 55.68598 | 12.75882 | 3283 ft | 252 kts | 35° |
| 2026-04-22 18:04 | 55.69408 | 12.77399 | 3883 ft | 262 kts | 50° |
| 2026-04-22 18:05 | 55.70112 | 12.80430 | 4823 ft | 275 kts | 76° |
| 2026-04-22 18:05 | 55.69986 | 12.83869 | 5761 ft | 288 kts | 104° |
| 2026-04-22 18:05 | 55.68938 | 12.86935 | 6663 ft | 298 kts | 134° |
| 2026-04-22 18:05 | 55.67156 | 12.88844 | 7486 ft | 304 kts | 159° |
| 2026-04-22 18:06 | 55.65152 | 12.90131 | 8334 ft | 307 kts | 162° |
| 2026-04-22 18:06 | 55.63017 | 12.90821 | 9155 ft | 311 kts | 179° |
| 2026-04-22 18:06 | 55.60856 | 12.90496 | 9964 ft | 314 kts | 195° |
| 2026-04-22 18:06 | 55.58790 | 12.89212 | 10556 ft | 322 kts | 210° |
| 2026-04-22 18:07 | 55.56899 | 12.86919 | 10763 ft | 339 kts | 227° |
| 2026-04-22 18:07 | 55.55177 | 12.83885 | 10910 ft | 363 kts | 224° |
| 2026-04-22 18:07 | 55.53031 | 12.81255 | 11038 ft | 389 kts | 210° |
| 2026-04-22 18:07 | 55.50454 | 12.79454 | 11293 ft | 407 kts | 196° |
| 2026-04-22 18:08 | 55.47650 | 12.78606 | 11854 ft | 413 kts | 184° |
| 2026-04-22 18:08 | 55.44769 | 12.78694 | 12504 ft | 416 kts | 173° |
| 2026-04-22 18:08 | 55.41879 | 12.79289 | 13192 ft | 418 kts | 173° |
| 2026-04-22 18:08 | 55.38987 | 12.79894 | 13884 ft | 421 kts | 173° |
| 2026-04-22 18:09 | 55.36089 | 12.80715 | 14511 ft | 423 kts | 165° |
| 2026-04-22 18:09 | 55.33291 | 12.82337 | 15112 ft | 424 kts | 155° |
| 2026-04-22 18:09 | 55.30687 | 12.84778 | 15718 ft | 425 kts | 145° |
| 2026-04-22 18:09 | 55.28334 | 12.87909 | 16317 ft | 425 kts | 139° |
| 2026-04-22 18:10 | 55.26025 | 12.91178 | 16903 ft | 428 kts | 139° |
| 2026-04-22 18:10 | 55.23697 | 12.94447 | 17473 ft | 430 kts | 139° |
| 2026-04-22 18:10 | 55.21352 | 12.97720 | 18040 ft | 432 kts | 139° |
| 2026-04-22 18:10 | 55.18987 | 13.00999 | 18583 ft | 435 kts | 139° |
| 2026-04-22 18:11 | 55.16609 | 13.04288 | 19066 ft | 437 kts | 139° |
| 2026-04-22 18:11 | 55.14220 | 13.07593 | 19540 ft | 439 kts | 139° |
| 2026-04-22 18:11 | 55.11827 | 13.10902 | 20008 ft | 441 kts | 139° |
| 2026-04-22 18:11 | 55.09415 | 13.14235 | 20470 ft | 443 kts | 139° |
| 2026-04-22 18:12 | 55.06990 | 13.17587 | 20898 ft | 445 kts | 139° |
| 2026-04-22 18:12 | 55.04564 | 13.20934 | 21321 ft | 447 kts | 139° |
| 2026-04-22 18:12 | 55.02120 | 13.24297 | 21712 ft | 448 kts | 139° |
| 2026-04-22 18:12 | 54.99632 | 13.27715 | 22096 ft | 450 kts | 139° |
| 2026-04-22 18:13 | 54.97165 | 13.31099 | 22452 ft | 452 kts | 139° |
| 2026-04-22 18:13 | 54.94654 | 13.34421 | 22800 ft | 456 kts | 143° |
| 2026-04-22 18:13 | 54.91874 | 13.37124 | 23146 ft | 462 kts | 154° |
| 2026-04-22 18:13 | 54.88772 | 13.38684 | 23483 ft | 468 kts | 167° |
| 2026-04-22 18:14 | 54.85552 | 13.39623 | 23814 ft | 470 kts | 168° |
| 2026-04-22 18:14 | 54.82314 | 13.40526 | 24097 ft | 472 kts | 168° |
| 2026-04-22 18:14 | 54.79060 | 13.41404 | 24381 ft | 474 kts | 168° |
| 2026-04-22 18:14 | 54.75806 | 13.42267 | 24695 ft | 474 kts | 168° |
| 2026-04-22 18:15 | 54.72554 | 13.43122 | 25133 ft | 472 kts | 168° |
| 2026-04-22 18:15 | 54.69315 | 13.43978 | 25545 ft | 470 kts | 168° |
| 2026-04-22 18:15 | 54.66086 | 13.44838 | 25973 ft | 469 kts | 167° |
| 2026-04-22 18:15 | 54.62862 | 13.45708 | 26407 ft | 467 kts | 167° |
| 2026-04-22 18:16 | 54.59664 | 13.46575 | 26863 ft | 465 kts | 167° |
| 2026-04-22 18:16 | 54.56470 | 13.47438 | 27321 ft | 464 kts | 166° |
| 2026-04-22 18:16 | 54.53288 | 13.48292 | 27799 ft | 462 kts | 166° |
| 2026-04-22 18:16 | 54.50118 | 13.49138 | 28278 ft | 460 kts | 166° |
| 2026-04-22 18:17 | 54.46960 | 13.49978 | 28774 ft | 458 kts | 166° |
| 2026-04-22 18:17 | 54.43816 | 13.50815 | 29271 ft | 456 kts | 165° |
| 2026-04-22 18:17 | 54.40692 | 13.51646 | 29773 ft | 454 kts | 165° |
| 2026-04-22 18:17 | 54.37568 | 13.52475 | 30288 ft | 452 kts | 165° |
| 2026-04-22 18:18 | 54.34462 | 13.53295 | 30726 ft | 451 kts | 164° |
| 2026-04-22 18:18 | 54.31375 | 13.54104 | 31159 ft | 449 kts | 164° |
| 2026-04-22 18:18 | 54.28290 | 13.54912 | 31582 ft | 448 kts | 164° |
| 2026-04-22 18:18 | 54.25214 | 13.55722 | 32007 ft | 447 kts | 163° |
| 2026-04-22 18:19 | 54.22148 | 13.56537 | 32433 ft | 445 kts | 163° |
| 2026-04-22 18:19 | 54.19090 | 13.57355 | 32863 ft | 444 kts | 163° |
| 2026-04-22 18:19 | 54.16040 | 13.58168 | 33283 ft | 443 kts | 163° |
| 2026-04-22 18:19 | 54.12995 | 13.58972 | 33711 ft | 442 kts | 162° |
| 2026-04-22 18:20 | 54.09956 | 13.59766 | 34139 ft | 441 kts | 162° |
| 2026-04-22 18:20 | 54.06923 | 13.60554 | 34516 ft | 441 kts | 162° |
| 2026-04-22 18:20 | 54.03855 | 13.61350 | 34866 ft | 440 kts | 163° |
| 2026-04-22 18:20 | 54.00828 | 13.62134 | 35157 ft | 441 kts | 163° |
| 2026-04-22 18:21 | 53.97797 | 13.62925 | 35229 ft | 440 kts | 163° |
| 2026-04-22 18:21 | 53.91741 | 13.64509 | 35240 ft | 440 kts | 163° |
| 2026-04-22 18:22 | 53.85689 | 13.66082 | 35239 ft | 440 kts | 163° |
| 2026-04-22 18:22 | 53.79642 | 13.67649 | 35471 ft | 440 kts | 163° |
| 2026-04-22 18:22 | 53.76615 | 13.68426 | 35823 ft | 440 kts | 163° |
| 2026-04-22 18:23 | 53.73590 | 13.69199 | 36124 ft | 440 kts | 163° |
| 2026-04-22 18:23 | 53.70565 | 13.69969 | 36420 ft | 440 kts | 164° |
| 2026-04-22 18:23 | 53.67540 | 13.70742 | 36695 ft | 440 kts | 164° |
| 2026-04-22 18:24 | 53.61485 | 13.72296 | 37199 ft | 441 kts | 164° |
| 2026-04-22 18:24 | 53.58438 | 13.73081 | 37250 ft | 446 kts | 165° |
| 2026-04-22 18:25 | 53.49082 | 13.75474 | 37251 ft | 454 kts | 165° |
| 2026-04-22 18:25 | 53.42827 | 13.77045 | 37250 ft | 455 kts | 165° |
| 2026-04-22 18:26 | 53.33434 | 13.78832 | 37257 ft | 455 kts | 177° |
| 2026-04-22 18:26 | 53.27246 | 13.79436 | 37252 ft | 439 kts | 161° |
| 2026-04-22 18:27 | 53.21171 | 13.81381 | 37259 ft | 451 kts | 164° |
| 2026-04-22 18:27 | 53.14926 | 13.82874 | 37262 ft | 455 kts | 166° |
| 2026-04-22 18:28 | 53.08640 | 13.84311 | 37262 ft | 455 kts | 165° |
| 2026-04-22 18:28 | 53.02374 | 13.85872 | 36947 ft | 456 kts | 164° |
| 2026-04-22 18:29 | 52.99242 | 13.86684 | 36425 ft | 455 kts | 163° |
| 2026-04-22 18:29 | 52.96122 | 13.87495 | 35924 ft | 453 kts | 163° |
| 2026-04-22 18:29 | 52.93007 | 13.88298 | 35440 ft | 452 kts | 163° |
| 2026-04-22 18:29 | 52.89902 | 13.89088 | 35237 ft | 451 kts | 163° |
| 2026-04-22 18:30 | 52.80591 | 13.91460 | 35263 ft | 452 kts | 163° |
| 2026-04-22 18:31 | 52.74380 | 13.93020 | 35262 ft | 452 kts | 163° |
| 2026-04-22 18:31 | 52.68158 | 13.94574 | 35263 ft | 452 kts | 163° |
| 2026-04-22 18:32 | 52.62955 | 13.95876 | 35270 ft | 452 kts | 163° |
| 2026-04-22 18:32 | 52.55689 | 13.97693 | 35273 ft | 452 kts | 163° |
| 2026-04-22 18:33 | 52.49465 | 13.99244 | 35281 ft | 452 kts | 163° |
| 2026-04-22 18:33 | 52.43241 | 14.00794 | 35285 ft | 452 kts | 163° |
| 2026-04-22 18:34 | 52.37013 | 14.02332 | 35289 ft | 453 kts | 163° |
| 2026-04-22 18:34 | 52.30791 | 14.03864 | 35287 ft | 453 kts | 163° |
| 2026-04-22 18:35 | 52.24560 | 14.05400 | 35288 ft | 453 kts | 163° |
| 2026-04-22 18:35 | 52.18329 | 14.06938 | 35287 ft | 453 kts | 163° |
| 2026-04-22 18:36 | 52.12093 | 14.08468 | 35289 ft | 453 kts | 163° |
| 2026-04-22 18:36 | 52.05858 | 14.09985 | 35281 ft | 453 kts | 163° |
| 2026-04-22 18:37 | 52.00638 | 14.11253 | 35280 ft | 453 kts | 163° |
| 2026-04-22 18:37 | 51.94400 | 14.12773 | 35282 ft | 453 kts | 163° |
| 2026-04-22 18:38 | 51.88158 | 14.14301 | 35279 ft | 454 kts | 163° |
| 2026-04-22 18:38 | 51.81912 | 14.15811 | 35281 ft | 454 kts | 163° |
| 2026-04-22 18:39 | 51.72530 | 14.18064 | 35284 ft | 455 kts | 163° |
| 2026-04-22 18:39 | 51.66265 | 14.19564 | 35284 ft | 455 kts | 163° |
| 2026-04-22 18:40 | 51.59996 | 14.21074 | 35286 ft | 456 kts | 163° |
| 2026-04-22 18:40 | 51.53720 | 14.22574 | 35287 ft | 456 kts | 164° |
| 2026-04-22 18:41 | 51.47436 | 14.24064 | 35284 ft | 457 kts | 164° |
| 2026-04-22 18:41 | 51.41144 | 14.25547 | 34993 ft | 456 kts | 164° |
| 2026-04-22 18:42 | 51.38003 | 14.26287 | 34016 ft | 454 kts | 163° |
| 2026-04-22 18:42 | 51.34874 | 14.27017 | 33086 ft | 443 kts | 164° |
| 2026-04-22 18:42 | 51.31854 | 14.27722 | 32188 ft | 434 kts | 164° |
| 2026-04-22 18:42 | 51.28890 | 14.28417 | 31333 ft | 427 kts | 165° |
| 2026-04-22 18:43 | 51.25954 | 14.29112 | 30382 ft | 428 kts | 165° |
| 2026-04-22 18:43 | 51.22993 | 14.29824 | 29287 ft | 434 kts | 166° |
| 2026-04-22 18:43 | 51.19997 | 14.30548 | 28274 ft | 439 kts | 166° |
| 2026-04-22 18:43 | 51.16952 | 14.31277 | 27099 ft | 445 kts | 166° |
| 2026-04-22 18:44 | 51.13868 | 14.32008 | 25889 ft | 453 kts | 167° |
| 2026-04-22 18:44 | 51.10732 | 14.32743 | 24701 ft | 458 kts | 167° |
| 2026-04-22 18:44 | 51.07555 | 14.33478 | 23562 ft | 462 kts | 168° |
| 2026-04-22 18:44 | 51.04394 | 14.34205 | 22614 ft | 458 kts | 168° |
| 2026-04-22 18:45 | 51.01260 | 14.34923 | 21728 ft | 453 kts | 168° |
| 2026-04-22 18:45 | 50.98150 | 14.35638 | 20814 ft | 450 kts | 168° |
| 2026-04-22 18:45 | 50.95059 | 14.36351 | 19912 ft | 448 kts | 168° |
| 2026-04-22 18:45 | 50.91988 | 14.37095 | 19045 ft | 445 kts | 167° |
| 2026-04-22 18:46 | 50.88956 | 14.38039 | 18681 ft | 446 kts | 164° |
| 2026-04-22 18:46 | 50.85923 | 14.39156 | 18376 ft | 448 kts | 163° |
| 2026-04-22 18:46 | 50.82904 | 14.40363 | 17979 ft | 447 kts | 162° |
| 2026-04-22 18:46 | 50.79897 | 14.41591 | 17594 ft | 446 kts | 162° |
| 2026-04-22 18:47 | 50.76895 | 14.42793 | 17203 ft | 444 kts | 163° |
| 2026-04-22 18:47 | 50.73897 | 14.43954 | 16816 ft | 443 kts | 163° |
| 2026-04-22 18:47 | 50.70910 | 14.45074 | 16435 ft | 441 kts | 164° |
| 2026-04-22 18:47 | 50.67921 | 14.46169 | 16055 ft | 440 kts | 164° |
| 2026-04-22 18:48 | 50.64940 | 14.47236 | 15680 ft | 438 kts | 166° |
| 2026-04-22 18:48 | 50.61871 | 14.47737 | 15283 ft | 440 kts | 178° |
| 2026-04-22 18:48 | 50.58825 | 14.47338 | 14902 ft | 440 kts | 189° |
| 2026-04-22 18:48 | 50.55880 | 14.46062 | 14510 ft | 439 kts | 201° |
| 2026-04-22 18:49 | 50.54038 | 14.44757 | 14257 ft | 437 kts | 208° |
| 2026-04-22 18:49 | 50.53146 | 14.43965 | 14124 ft | 436 kts | 212° |
| 2026-04-22 18:49 | 50.50731 | 14.41757 | 13741 ft | 434 kts | 210° |
| 2026-04-22 18:49 | 50.49025 | 14.40391 | 13558 ft | 432 kts | 202° |
| 2026-04-22 18:50 | 50.46133 | 14.39184 | 13293 ft | 430 kts | 186° |
| 2026-04-22 18:50 | 50.43165 | 14.39250 | 13025 ft | 426 kts | 169° |
| 2026-04-22 18:50 | 50.40352 | 14.40557 | 12763 ft | 420 kts | 154° |
| 2026-04-22 18:50 | 50.37678 | 14.42401 | 12505 ft | 419 kts | 153° |
| 2026-04-22 18:51 | 50.35018 | 14.44256 | 12242 ft | 418 kts | 153° |
| 2026-04-22 18:51 | 50.32367 | 14.46108 | 11982 ft | 416 kts | 153° |
| 2026-04-22 18:51 | 50.29731 | 14.47943 | 11735 ft | 415 kts | 154° |
| 2026-04-22 18:51 | 50.27088 | 14.49772 | 11477 ft | 414 kts | 154° |
| 2026-04-22 18:52 | 50.24463 | 14.51581 | 11234 ft | 413 kts | 154° |
| 2026-04-22 18:52 | 50.21840 | 14.53387 | 10987 ft | 411 kts | 154° |
| 2026-04-22 18:52 | 50.19225 | 14.55187 | 10741 ft | 410 kts | 154° |
| 2026-04-22 18:52 | 50.16663 | 14.56946 | 10486 ft | 394 kts | 154° |
| 2026-04-22 18:53 | 50.14204 | 14.58622 | 10245 ft | 378 kts | 154° |
| 2026-04-22 18:53 | 50.11845 | 14.60224 | 10104 ft | 362 kts | 154° |
| 2026-04-22 18:53 | 50.09559 | 14.61778 | 9962 ft | 346 kts | 154° |
| 2026-04-22 18:53 | 50.07412 | 14.63310 | 9829 ft | 332 kts | 147° |
| 2026-04-22 18:54 | 50.05629 | 14.65435 | 9695 ft | 317 kts | 135° |
| 2026-04-22 18:54 | 50.04008 | 14.67684 | 9558 ft | 307 kts | 134° |
| 2026-04-22 18:54 | 50.02449 | 14.69865 | 9417 ft | 293 kts | 134° |
| 2026-04-22 18:54 | 50.00981 | 14.71912 | 9283 ft | 274 kts | 134° |
| 2026-04-22 18:55 | 49.99589 | 14.73840 | 9039 ft | 265 kts | 134° |
| 2026-04-22 18:55 | 49.98228 | 14.75722 | 8861 ft | 257 kts | 134° |
| 2026-04-22 18:55 | 49.96931 | 14.77506 | 8680 ft | 242 kts | 134° |
| 2026-04-22 18:55 | 49.95651 | 14.79150 | 8278 ft | 238 kts | 143° |
| 2026-04-22 18:56 | 49.94093 | 14.79957 | 7923 ft | 237 kts | 180° |
| 2026-04-22 18:56 | 49.92625 | 14.79311 | 8082 ft | 196 kts | 224° |
| 2026-04-22 18:56 | 49.91797 | 14.77866 | 7973 ft | 184 kts | 243° |
| 2026-04-22 18:56 | 49.91266 | 14.75994 | 7478 ft | 194 kts | 259° |
| 2026-04-22 18:57 | 49.91023 | 14.73880 | 7239 ft | 208 kts | 270° |
| 2026-04-22 18:57 | 49.91015 | 14.71715 | 7152 ft | 194 kts | 278° |
| 2026-04-22 18:57 | 49.91148 | 14.69686 | 7041 ft | 182 kts | 284° |
| 2026-04-22 18:57 | 49.91408 | 14.67756 | 7028 ft | 195 kts | 289° |
| 2026-04-22 18:58 | 49.91772 | 14.65668 | 7065 ft | 199 kts | 290° |
| 2026-04-22 18:58 | 49.92155 | 14.63615 | 6915 ft | 196 kts | 292° |
| 2026-04-22 18:58 | 49.92633 | 14.61659 | 6664 ft | 192 kts | 300° |
| 2026-04-22 18:58 | 49.93283 | 14.59841 | 6452 ft | 188 kts | 307° |
| 2026-04-22 18:59 | 49.94069 | 14.58229 | 6281 ft | 186 kts | 315° |
| 2026-04-22 18:59 | 49.94952 | 14.56766 | 6088 ft | 185 kts | 317° |
| 2026-04-22 18:59 | 49.95798 | 14.55273 | 5885 ft | 182 kts | 306° |
| 2026-04-22 18:59 | 49.96447 | 14.53554 | 5890 ft | 185 kts | 309° |
| 2026-04-22 19:00 | 49.97291 | 14.52049 | 5569 ft | 186 kts | 316° |
| 2026-04-22 19:00 | 49.98140 | 14.50516 | 5068 ft | 188 kts | 313° |
| 2026-04-22 19:00 | 49.98947 | 14.48925 | 4664 ft | 187 kts | 311° |
| 2026-04-22 19:00 | 49.99735 | 14.47328 | 4364 ft | 184 kts | 311° |
| 2026-04-22 19:01 | 50.00488 | 14.45785 | 4103 ft | 174 kts | 311° |
| 2026-04-22 19:01 | 50.01178 | 14.44369 | 3893 ft | 163 kts | 311° |
| 2026-04-22 19:01 | 50.01851 | 14.42987 | 3668 ft | 158 kts | 311° |
| 2026-04-22 19:01 | 50.02512 | 14.41632 | 3459 ft | 157 kts | 311° |
| 2026-04-22 19:02 | 50.03166 | 14.40287 | 3230 ft | 155 kts | 311° |
| 2026-04-22 19:02 | 50.03815 | 14.38952 | 3051 ft | 153 kts | 311° |
| 2026-04-22 19:02 | 50.04451 | 14.37642 | 2824 ft | 146 kts | 311° |
| 2026-04-22 19:02 | 50.05039 | 14.36429 | 2624 ft | 136 kts | 311° |
| 2026-04-22 19:03 | 50.05602 | 14.35272 | 2441 ft | 133 kts | 311° |
| 2026-04-22 19:03 | 50.06157 | 14.34130 | 2270 ft | 132 kts | 311° |
| 2026-04-22 19:03 | 50.06708 | 14.32994 | 2081 ft | 131 kts | 310° |
| 2026-04-22 19:03 | 50.07254 | 14.31869 | 1888 ft | 130 kts | 309° |
| 2026-04-22 19:04 | 50.07811 | 14.30728 | 1697 ft | 135 kts | 309° |
| 2026-04-22 19:04 | 50.08389 | 14.29548 | 1447 ft | 140 kts | 309° |
| 2026-04-22 19:04 | 50.08971 | 14.28323 | 1267 ft | 141 kts | 308° |
| 2026-04-22 19:04 | 50.09511 | 14.27202 | 1206 ft | 112 kts | 307° |
| 2026-04-22 19:05 | 50.09874 | 14.26456 | 1202 ft | 62 kts | 307° |
| 2026-04-22 19:05 | 50.10081 | 14.26031 | 1191 ft | 45 kts | 306° |
| 2026-04-22 19:05 | 50.10226 | 14.25750 | 1188 ft | 19 kts | 324° |
| 2026-04-22 19:05 | 50.10307 | 14.25683 | 1186 ft | 6 kts | 341° |
| 2026-04-22 19:06 | 50.10346 | 14.25665 | 1185 ft | 7 kts | 345° |
| 2026-04-22 19:06 | 50.10363 | 14.25658 | 1184 ft | 0 kts | 345° |
| 2026-04-22 19:07 | 50.10365 | 14.25657 | 1184 ft | 2 kts | 346° |
| 2026-04-22 19:07 | 50.10401 | 14.25644 | 1183 ft | 8 kts | 347° |
| 2026-04-22 19:07 | 50.10451 | 14.25664 | 1182 ft | 6 kts | 24° |
| 2026-04-22 19:08 | 50.10486 | 14.25689 | 1179 ft | 10 kts | 24° |
| 2026-04-22 19:08 | 50.10545 | 14.25730 | 1177 ft | 8 kts | 24° |
| 2026-04-22 19:08 | 50.10576 | 14.25763 | 1174 ft | 7 kts | 36° |
| 2026-04-22 19:08 | 50.10622 | 14.25813 | 1172 ft | 0 kts | 34° |
| 2026-04-22 19:09 | 50.10623 | 14.25815 | 1172 ft | 0 kts | 34° |
| 2026-04-22 19:09 | 50.10624 | 14.25816 | 1172 ft | 1 kts | 34° |
| 2026-04-22 19:09 | 50.10645 | 14.25837 | 1172 ft | 6 kts | 33° |
| 2026-04-22 19:09 | 50.10698 | 14.25892 | 1173 ft | 12 kts | 34° |
| 2026-04-22 19:10 | 50.10760 | 14.25958 | 1173 ft | 11 kts | 34° |
| 2026-04-22 19:10 | 50.10829 | 14.26032 | 1171 ft | 11 kts | 34° |
| 2026-04-22 19:10 | 50.10859 | 14.26065 | 1171 ft | 4 kts | 35° |
| 2026-04-22 19:10 | 50.10867 | 14.26112 | 1173 ft | 5 kts | 111° |
| 2026-04-22 19:11 | 50.10845 | 14.26165 | 1171 ft | 6 kts | 124° |
| 2026-04-22 19:11 | 50.10820 | 14.26225 | 1173 ft | 7 kts | 120° |
| 2026-04-22 19:11 | 50.10796 | 14.26294 | 1171 ft | 7 kts | 120° |
| 2026-04-22 19:11 | 50.10764 | 14.26368 | 1174 ft | 9 kts | 125° |
| 2026-04-22 19:12 | 50.10730 | 14.26444 | 1172 ft | 7 kts | 137° |
| 2026-04-22 19:12 | 50.10689 | 14.26438 | 1172 ft | 2 kts | 204° |
| 2026-04-22 19:12 | 50.10674 | 14.26425 | 1171 ft | 1 kts | 210° |
| 2026-04-22 19:12 | 50.10673 | 14.26424 | 1172 ft | 0 kts | 210° |